createdAt,value
2019-01-11T00:01:54.959Z,17.83
2019-01-11T00:04:25.364Z,18.43
2019-01-11T00:06:55.685Z,16.60
2019-01-11T00:09:26.172Z,16.47
2019-01-11T00:11:56.585Z,15.63
2019-01-11T00:14:27.069Z,16.37
2019-01-11T00:16:57.466Z,15.10
2019-01-11T00:19:27.985Z,14.70
2019-01-11T00:22:01.155Z,12.10
2019-01-11T00:24:33.981Z,13.53
2019-01-11T00:27:04.620Z,12.73
2019-01-11T00:29:35.173Z,10.87
2019-01-11T00:32:05.674Z,11.63
2019-01-11T00:34:36.194Z,11.93
2019-01-11T00:37:06.810Z,11.73
2019-01-11T00:39:37.251Z,11.20
2019-01-11T00:42:07.710Z,12.17
2019-01-11T00:44:38.086Z,11.83
2019-01-11T00:47:30.519Z,11.97
2019-01-11T00:50:00.941Z,11.57
2019-01-11T00:52:31.570Z,11.70
2019-01-11T00:55:02.755Z,12.43
2019-01-11T00:57:33.516Z,12.93
2019-01-11T01:00:07.975Z,13.07
2019-01-11T01:02:40.030Z,12.90
2019-01-11T01:05:10.885Z,14.13
2019-01-11T01:07:41.366Z,12.70
2019-01-11T01:10:12.577Z,12.77
2019-01-11T01:12:43.118Z,13.53
2019-01-11T01:15:14.235Z,13.27
2019-01-11T01:17:47.179Z,13.80
2019-01-11T01:20:20.280Z,13.30
2019-01-11T01:22:50.825Z,14.00
2019-01-11T01:25:21.345Z,15.17
2019-01-11T01:27:51.881Z,14.77
2019-01-11T01:30:22.446Z,12.97
2019-01-11T01:32:52.941Z,13.87
2019-01-11T01:35:23.630Z,14.73
2019-01-11T01:37:55.735Z,15.40
2019-01-11T01:40:28.886Z,15.77
2019-01-11T01:43:00.899Z,17.17
2019-01-11T01:45:31.756Z,15.90
2019-01-11T01:48:02.444Z,16.77
2019-01-11T01:50:32.984Z,17.47
2019-01-11T01:53:04.986Z,17.20
2019-01-11T01:55:35.856Z,17.20
2019-01-11T01:58:06.716Z,17.23
2019-01-11T02:00:39.146Z,16.83
2019-01-11T02:03:08.905Z,18.10
2019-01-11T02:05:39.265Z,17.33
2019-01-11T02:08:09.695Z,16.17
2019-01-11T02:10:40.181Z,18.97
2019-01-11T02:13:10.581Z,18.87
2019-01-11T02:15:40.997Z,17.60
2019-01-11T02:18:11.400Z,19.20
2019-01-11T02:20:41.778Z,19.27
2019-01-11T02:23:12.170Z,20.30
2019-01-11T02:25:46.178Z,21.03
2019-01-11T02:28:14.505Z,19.63
2019-01-11T02:30:44.791Z,18.37
2019-01-11T02:33:15.242Z,18.77
2019-01-11T02:35:45.736Z,20.03
2019-01-11T02:38:16.301Z,22.83
2019-01-11T02:40:46.623Z,22.77
2019-01-11T02:43:17.077Z,21.03
2019-01-11T02:45:47.511Z,22.50
2019-01-11T02:48:19.347Z,21.23
2019-01-11T02:50:49.811Z,23.20
2019-01-11T02:53:20.350Z,23.13
2019-01-11T02:55:50.836Z,22.17
2019-01-11T02:58:21.226Z,21.20
2019-01-11T03:00:51.622Z,22.90
2019-01-11T03:03:22.225Z,22.20
2019-01-11T03:05:52.666Z,22.47
2019-01-11T03:08:24.214Z,22.10
2019-01-11T03:10:54.722Z,23.23
2019-01-11T03:13:25.193Z,22.13
2019-01-11T03:15:55.669Z,20.83
2019-01-11T03:18:26.247Z,21.07
2019-01-11T03:20:56.761Z,19.93
2019-01-11T03:23:27.200Z,19.97
2019-01-11T03:25:57.582Z,21.27
2019-01-11T03:28:27.948Z,20.70
2019-01-11T03:30:59.977Z,19.90
2019-01-11T03:33:30.459Z,18.80
2019-01-11T03:36:01.096Z,19.93
2019-01-11T03:38:31.602Z,18.07
2019-01-11T03:41:02.205Z,18.73
2019-01-11T03:43:32.577Z,18.90
2019-01-11T03:46:03.426Z,18.50
2019-01-11T03:48:33.801Z,18.53
2019-01-11T03:51:04.438Z,19.03
2019-01-11T03:53:34.878Z,17.13
2019-01-11T03:56:06.424Z,18.90
2019-01-11T03:58:36.957Z,17.93
2019-01-11T04:01:07.458Z,17.97
2019-01-11T04:03:37.993Z,17.73
2019-01-11T04:06:08.417Z,19.27
2019-01-11T04:08:38.841Z,19.90
2019-01-11T04:11:09.325Z,19.60
2019-01-11T04:13:39.734Z,20.63
2019-01-11T04:16:10.183Z,21.73
2019-01-11T04:18:50.982Z,21.63
2019-01-11T04:21:21.435Z,20.53
2019-01-11T04:23:51.854Z,19.53
2019-01-11T04:26:22.382Z,21.57
2019-01-11T04:28:52.832Z,22.97
2019-01-11T04:31:23.317Z,23.10
2019-01-11T04:33:54.273Z,22.40
2019-01-11T04:36:24.568Z,20.97
2019-01-11T04:38:55.056Z,20.57
2019-01-11T04:41:25.521Z,20.60
2019-01-11T04:43:55.963Z,21.90
2019-01-11T04:46:26.361Z,22.10
2019-01-11T04:48:56.713Z,21.00
2019-01-11T04:51:27.013Z,22.80
2019-01-11T04:53:57.414Z,22.07
2019-01-11T04:56:27.751Z,22.50
2019-01-11T04:58:58.234Z,24.33
2019-01-11T05:01:28.581Z,24.20
2019-01-11T05:03:58.969Z,21.80
2019-01-11T05:06:29.363Z,24.60
2019-01-11T05:08:59.792Z,22.80
2019-01-11T05:11:30.226Z,22.40
2019-01-11T05:14:00.707Z,23.57
2019-01-11T05:16:31.186Z,23.67
2019-01-11T05:19:01.767Z,23.60
2019-01-11T05:21:32.237Z,22.60
2019-01-11T05:24:02.727Z,22.00
2019-01-11T05:26:33.112Z,24.10
2019-01-11T05:29:03.864Z,23.50
2019-01-11T05:31:34.200Z,24.07
2019-01-11T05:34:04.608Z,23.17
2019-01-11T05:36:35.035Z,24.23
2019-01-11T05:39:08.395Z,23.37
2019-01-11T05:41:38.752Z,24.97
2019-01-11T05:44:09.213Z,22.97
2019-01-11T05:46:39.568Z,24.47
2019-01-11T05:49:11.035Z,25.03
2019-01-11T05:51:50.403Z,24.17
2019-01-11T05:54:20.713Z,25.53
2019-01-11T05:56:51.078Z,24.03
2019-01-11T05:59:21.423Z,31.13
2019-01-11T06:01:51.917Z,29.33
2019-01-11T06:04:45.866Z,28.93
2019-01-11T06:07:41.333Z,27.63
2019-01-11T06:10:13.948Z,24.40
2019-01-11T06:12:44.362Z,29.67
2019-01-11T06:15:14.679Z,29.23
2019-01-11T06:17:45.042Z,28.27
2019-01-11T06:20:16.759Z,27.33
2019-01-11T06:22:47.062Z,29.77
2019-01-11T06:25:17.359Z,30.57
2019-01-11T06:27:47.695Z,29.53
2019-01-11T06:30:18.152Z,30.00
2019-01-11T06:32:48.578Z,31.60
2019-01-11T06:35:18.988Z,33.23
2019-01-11T06:37:49.371Z,29.63
2019-01-11T06:40:19.796Z,31.53
2019-01-11T06:42:50.226Z,30.60
2019-01-11T06:45:20.595Z,32.00
2019-01-11T06:47:51.077Z,31.00
2019-01-11T06:50:21.453Z,29.90
2019-01-11T06:52:51.864Z,30.57
2019-01-11T06:55:23.350Z,30.53
2019-01-11T06:57:53.709Z,28.77
2019-01-11T07:00:24.194Z,30.23
2019-01-11T07:02:54.668Z,30.93
2019-01-11T07:05:25.314Z,31.77
2019-01-11T07:07:55.993Z,32.17
2019-01-11T07:10:26.433Z,33.63
2019-01-11T07:12:57.065Z,31.03
2019-01-11T07:15:27.589Z,32.67
2019-01-11T07:17:58.044Z,31.10
2019-01-11T07:20:28.401Z,33.30
2019-01-11T07:22:58.792Z,30.43
2019-01-11T07:25:29.182Z,34.30
2019-01-11T07:28:02.018Z,33.67
2019-01-11T07:30:54.337Z,31.73
2019-01-11T07:33:24.737Z,31.83
2019-01-11T07:36:05.937Z,32.43
2019-01-11T07:38:37.474Z,31.43
2019-01-11T07:41:07.951Z,31.87
2019-01-11T07:43:38.354Z,32.97
2019-01-11T07:46:08.712Z,30.03
2019-01-11T07:48:39.082Z,29.97
2019-01-11T07:51:09.465Z,30.70
2019-01-11T07:53:39.888Z,30.30
2019-01-11T07:56:10.350Z,30.27
2019-01-11T08:03:29.028Z,33.23
2019-01-11T08:06:31.180Z,26.60
2019-01-11T08:09:20.257Z,28.80
2019-01-11T08:12:05.514Z,28.80
2019-01-11T08:14:42.217Z,25.00
2019-01-11T08:17:17.085Z,26.23
2019-01-11T08:19:47.542Z,25.90
2019-01-11T08:22:36.247Z,24.03
2019-01-11T08:25:07.599Z,27.03
2019-01-11T08:27:37.969Z,24.13
2019-01-11T08:30:11.645Z,21.83
2019-01-11T08:32:42.121Z,25.00
2019-01-11T08:35:13.263Z,26.30
2019-01-11T08:37:43.739Z,24.77
2019-01-11T08:40:14.340Z,24.47
2019-01-11T08:42:44.650Z,27.80
2019-01-11T08:45:15.143Z,22.77
2019-01-11T08:47:45.509Z,26.67
2019-01-11T08:50:18.053Z,25.63
2019-01-11T08:52:48.389Z,22.67
2019-01-11T08:55:18.735Z,22.77
2019-01-11T08:57:50.235Z,24.83
2019-01-11T09:00:20.522Z,24.73
2019-01-11T09:02:51.029Z,26.90
2019-01-11T09:05:21.453Z,24.00
2019-01-11T09:07:51.898Z,26.63
2019-01-11T09:10:23.299Z,27.43
2019-01-11T09:12:54.580Z,27.33
2019-01-11T09:15:24.962Z,27.17
2019-01-11T09:18:14.265Z,28.17
2019-01-11T09:20:44.639Z,28.00
2019-01-11T09:23:14.988Z,27.77
2019-01-11T09:25:45.375Z,30.87
2019-01-11T09:28:15.790Z,28.10
2019-01-11T09:30:46.259Z,29.77
2019-01-11T09:33:20.481Z,29.97
2019-01-11T09:35:48.775Z,28.67
2019-01-11T09:38:19.286Z,32.03
2019-01-11T09:40:49.964Z,30.30
2019-01-11T09:43:20.492Z,30.13
2019-01-11T09:45:51.030Z,29.00
2019-01-11T09:48:29.825Z,32.43
2019-01-11T09:51:03.276Z,32.70
2019-01-11T09:53:34.370Z,30.67
2019-01-11T09:56:05.385Z,29.67
2019-01-11T09:58:38.557Z,31.23
2019-01-11T10:01:09.841Z,33.20
2019-01-11T10:03:41.205Z,32.00
2019-01-11T10:06:12.790Z,31.13
2019-01-11T10:08:44.021Z,29.70
2019-01-11T10:11:15.199Z,29.13
2019-01-11T10:13:45.584Z,31.00
2019-01-11T10:16:16.151Z,30.07
2019-01-11T10:18:46.574Z,30.30
2019-01-11T10:21:22.115Z,31.97
2019-01-11T10:23:48.956Z,34.13
2019-01-11T10:26:19.311Z,31.53
2019-01-11T10:28:51.224Z,29.83
2019-01-11T10:31:21.639Z,32.60
2019-01-11T10:33:52.041Z,33.03
2019-01-11T10:36:22.442Z,34.47
2019-01-11T10:38:52.808Z,35.17
2019-01-11T10:41:23.268Z,36.23
2019-01-11T10:43:53.580Z,36.60
2019-01-11T10:46:34.970Z,36.73
2019-01-11T10:49:05.580Z,36.83
2019-01-11T10:51:35.951Z,37.03
2019-01-11T10:54:07.959Z,36.27
2019-01-11T10:56:38.340Z,37.47
2019-01-11T10:59:08.620Z,39.83
2019-01-11T11:01:38.956Z,38.00
2019-01-11T11:04:09.311Z,39.23
2019-01-11T11:06:39.739Z,37.47
2019-01-11T11:09:10.140Z,34.43
2019-01-11T11:11:40.510Z,39.70
2019-01-11T11:14:11.972Z,35.50
2019-01-11T11:16:42.358Z,37.80
2019-01-11T11:19:12.651Z,39.57
2019-01-11T11:21:44.061Z,39.27
2019-01-11T11:24:14.403Z,37.03
2019-01-11T11:26:44.915Z,36.70
2019-01-11T11:29:15.347Z,36.27
2019-01-11T11:31:45.718Z,35.90
2019-01-11T11:34:17.519Z,35.20
2019-01-11T11:36:47.826Z,30.73
2019-01-11T11:39:18.194Z,31.87
2019-01-11T11:41:48.466Z,30.43
2019-01-11T11:44:18.848Z,29.63
2019-01-11T11:46:49.171Z,27.83
2019-01-11T11:49:19.459Z,28.27
2019-01-11T11:51:49.891Z,29.13
2019-01-11T11:54:20.274Z,29.10
2019-01-11T11:56:50.614Z,30.17
2019-01-11T11:59:20.949Z,30.63
2019-01-11T12:01:52.425Z,30.03
2019-01-11T12:04:24.050Z,30.10
2019-01-11T12:06:54.427Z,28.63
2019-01-11T12:09:24.721Z,28.27
2019-01-11T12:11:55.182Z,28.47
2019-01-11T12:14:25.519Z,27.57
2019-01-11T12:16:55.980Z,29.30
2019-01-11T12:19:26.422Z,24.20
2019-01-11T12:22:01.596Z,23.73
2019-01-11T12:24:29.022Z,23.10
2019-01-11T12:26:59.386Z,23.87
2019-01-11T12:29:30.237Z,24.43
2019-01-11T12:32:00.525Z,23.53
2019-01-11T12:34:30.824Z,24.73
2019-01-11T12:37:01.265Z,24.57
2019-01-11T12:39:31.705Z,21.67
2019-01-11T12:42:02.141Z,21.23
2019-01-11T12:44:32.474Z,22.40
2019-01-11T12:47:02.887Z,24.30
2019-01-11T12:49:33.330Z,22.67
2019-01-11T12:52:03.658Z,23.57
2019-01-11T12:54:34.024Z,24.63
2019-01-11T12:57:05.051Z,24.63
2019-01-11T12:59:35.405Z,24.53
2019-01-11T13:02:06.325Z,24.67
2019-01-11T13:04:36.685Z,25.67
2019-01-11T13:07:07.192Z,27.93
2019-01-11T13:09:37.716Z,25.73
2019-01-11T13:12:08.217Z,26.50
2019-01-11T13:14:40.896Z,28.90
2019-01-11T13:17:11.350Z,26.67
2019-01-11T13:19:41.746Z,25.60
2019-01-11T13:22:12.172Z,26.97
2019-01-11T13:24:42.526Z,27.30
2019-01-11T13:27:13.091Z,28.00
2019-01-11T13:29:43.527Z,27.90
2019-01-11T13:32:18.163Z,28.33
2019-01-11T13:34:49.116Z,26.90
2019-01-11T13:37:19.702Z,26.03
2019-01-11T13:39:53.816Z,25.80
2019-01-11T13:42:24.192Z,23.80
2019-01-11T13:44:54.630Z,22.43
2019-01-11T13:47:24.946Z,21.60
2019-01-11T13:49:55.311Z,20.63
2019-01-11T13:52:25.608Z,17.83
2019-01-11T13:54:55.975Z,18.63
2019-01-11T13:57:28.281Z,14.30
2019-01-11T13:59:58.646Z,9.73
2019-01-11T14:02:29.026Z,6.40
2019-01-11T14:04:59.386Z,5.60
2019-01-11T14:07:29.771Z,4.73
2019-01-11T14:10:00.177Z,4.20
2019-01-11T14:12:30.626Z,4.30
2019-01-11T14:15:00.963Z,3.37
2019-01-11T14:17:31.382Z,3.97
2019-01-11T14:20:01.704Z,3.50
2019-01-11T14:22:32.062Z,3.20
2019-01-11T14:25:02.357Z,3.53
2019-01-11T14:27:32.678Z,3.77
2019-01-11T14:30:03.183Z,3.23
2019-01-11T14:32:34.808Z,4.03
2019-01-11T14:35:06.164Z,4.53
2019-01-11T14:37:37.656Z,3.77
2019-01-11T14:40:10.478Z,3.23
2019-01-11T14:42:40.968Z,2.97
2019-01-11T14:45:14.709Z,2.77
2019-01-11T14:47:46.818Z,3.20
2019-01-11T14:50:18.794Z,3.87
2019-01-11T14:52:49.272Z,3.53
2019-01-11T14:55:19.689Z,3.30
2019-01-11T14:57:50.253Z,3.27
2019-01-11T15:00:22.576Z,3.07
2019-01-11T15:02:53.058Z,3.00
2019-01-11T15:05:23.582Z,3.70
2019-01-11T15:07:54.251Z,2.67
2019-01-11T15:10:24.702Z,3.10
2019-01-11T15:12:55.332Z,3.53
2019-01-11T15:15:25.768Z,3.53
2019-01-11T15:17:56.147Z,2.83
2019-01-11T15:20:26.519Z,4.07
2019-01-11T15:22:57.034Z,2.60
2019-01-11T15:25:27.411Z,3.33
2019-01-11T15:27:59.108Z,3.23
2019-01-11T15:30:29.532Z,3.23
2019-01-11T15:32:59.838Z,3.93
2019-01-11T15:35:30.370Z,3.43
2019-01-11T15:38:00.722Z,3.07
2019-01-11T15:40:36.420Z,3.43
2019-01-11T15:43:03.871Z,3.73
2019-01-11T15:45:34.353Z,2.97
2019-01-11T15:48:04.763Z,3.50
2019-01-11T15:50:50.616Z,2.90
2019-01-11T15:53:21.026Z,3.03
2019-01-11T15:55:55.646Z,3.70
2019-01-11T15:58:26.178Z,3.27
2019-01-11T16:01:02.467Z,3.73
2019-01-11T16:03:40.208Z,3.17
2019-01-11T16:06:40.438Z,2.67
2019-01-11T16:10:05.693Z,3.73
2019-01-11T16:13:03.442Z,2.33
2019-01-11T16:15:43.531Z,2.60
2019-01-11T16:18:33.462Z,3.23
2019-01-11T16:21:06.228Z,3.33
2019-01-11T16:23:39.415Z,3.13
2019-01-11T16:26:13.130Z,2.97
2019-01-11T16:28:45.928Z,3.07
2019-01-11T16:31:20.773Z,3.63
2019-01-11T16:33:54.628Z,3.67
2019-01-11T16:36:26.222Z,3.83
2019-01-11T16:38:57.110Z,3.17
2019-01-11T16:41:27.536Z,3.03
2019-01-11T16:43:57.917Z,3.20
2019-01-11T16:46:28.233Z,2.60
2019-01-11T16:48:58.569Z,4.33
2019-01-11T16:51:28.883Z,2.73
2019-01-11T16:54:00.220Z,2.60
2019-01-11T16:56:30.528Z,2.70
2019-01-11T16:59:00.968Z,3.60
2019-01-11T17:01:31.449Z,3.20
2019-01-11T17:04:01.884Z,3.63
2019-01-11T17:06:32.362Z,3.53
2019-01-11T17:09:02.833Z,4.63
2019-01-11T17:11:33.273Z,3.50
2019-01-11T17:14:04.141Z,3.93
2019-01-11T17:16:34.652Z,3.83
2019-01-11T17:19:05.237Z,3.90
2019-01-11T17:21:35.663Z,4.40
2019-01-11T17:24:06.588Z,3.77
2019-01-11T17:26:46.268Z,5.67
2019-01-11T17:29:19.256Z,5.23
2019-01-11T17:31:50.637Z,4.13
2019-01-11T17:34:21.048Z,5.37
2019-01-11T17:36:51.492Z,4.93
2019-01-11T17:39:21.955Z,5.00
2019-01-11T17:41:52.332Z,4.67
2019-01-11T17:44:22.887Z,4.30
2019-01-11T17:46:53.302Z,4.37
2019-01-11T17:49:23.665Z,3.90
2019-01-11T17:51:54.118Z,3.50
2019-01-11T17:54:24.558Z,3.77
2019-01-11T17:56:55.135Z,6.03
2019-01-11T17:59:25.650Z,4.83
2019-01-11T18:01:56.214Z,4.77
2019-01-11T18:04:26.630Z,4.93
2019-01-11T18:06:57.205Z,5.43
2019-01-11T18:09:27.666Z,5.03
2019-01-11T18:11:58.225Z,5.13
2019-01-11T18:14:28.628Z,4.83
2019-01-11T18:16:59.039Z,4.93
2019-01-11T18:19:29.439Z,4.80
2019-01-11T18:22:00.039Z,4.70
2019-01-11T18:24:30.453Z,4.90
2019-01-11T18:27:00.947Z,4.47
2019-01-11T18:29:32.419Z,4.60
2019-01-11T18:32:04.034Z,5.37
2019-01-11T18:34:34.383Z,5.53
2019-01-11T18:37:05.038Z,4.80
2019-01-11T18:39:35.379Z,5.73
2019-01-11T18:42:05.992Z,5.23
2019-01-11T18:44:36.398Z,5.53
2019-01-11T18:47:06.900Z,3.67
2019-01-11T18:49:37.279Z,5.27
2019-01-11T18:52:08.693Z,4.93
2019-01-11T18:54:39.176Z,4.50
2019-01-11T18:57:09.766Z,5.10
2019-01-11T18:59:40.195Z,4.57
2019-01-11T19:02:10.784Z,4.17
2019-01-11T19:04:42.407Z,5.50
2019-01-11T19:07:13.228Z,6.67
2019-01-11T19:09:43.683Z,6.67
2019-01-11T19:12:14.338Z,3.67
2019-01-11T19:14:45.353Z,6.07
2019-01-11T19:17:16.857Z,5.70
2019-01-11T19:19:47.539Z,4.23
2019-01-11T19:22:18.008Z,4.20
2019-01-11T19:24:48.571Z,3.23
2019-01-11T19:27:19.074Z,3.47
2019-01-11T19:29:49.621Z,4.60
2019-01-11T19:32:20.045Z,4.93
2019-01-11T19:34:50.524Z,4.93
2019-01-11T19:37:22.341Z,4.20
2019-01-11T19:39:53.211Z,3.83
2019-01-11T19:42:23.666Z,3.43
2019-01-11T19:44:54.469Z,3.73
2019-01-11T19:47:24.934Z,4.43
2019-01-11T19:49:55.411Z,5.70
2019-01-11T19:52:25.821Z,4.83
2019-01-11T19:55:02.021Z,4.07
2019-01-11T19:57:39.006Z,5.43
2019-01-11T20:00:20.281Z,4.77
2019-01-11T20:03:00.022Z,5.43
2019-01-11T20:05:36.038Z,5.00
2019-01-11T20:08:12.932Z,4.23
2019-01-11T20:10:49.084Z,5.13
2019-01-11T20:13:25.419Z,4.27
2019-01-11T20:16:01.930Z,6.80
2019-01-11T20:18:38.996Z,3.90
2019-01-11T20:21:18.576Z,5.62
2019-01-11T20:23:58.390Z,6.10
2019-01-11T20:26:37.073Z,4.10
2019-01-11T20:32:57.651Z,5.67
2019-01-11T20:35:32.450Z,6.23
2019-01-11T20:38:09.064Z,5.17
2019-01-11T20:40:45.215Z,4.73
2019-01-11T20:43:21.014Z,3.63
2019-01-11T20:46:03.391Z,4.33
2019-01-11T20:48:37.885Z,4.90
2019-01-11T20:51:14.794Z,4.00
2019-01-11T20:53:50.665Z,4.40
2019-01-11T20:56:27.310Z,5.20
2019-01-11T20:59:04.362Z,5.03
2019-01-11T21:01:39.294Z,4.63
2019-01-11T21:04:16.487Z,5.33
2019-01-11T21:06:53.410Z,5.20
2019-01-11T21:09:30.036Z,4.97
2019-01-11T21:12:05.266Z,3.77
2019-01-11T21:14:42.414Z,4.13
2019-01-11T21:17:19.327Z,5.07
2019-01-11T21:19:55.502Z,3.87
2019-01-11T21:22:32.447Z,5.23
2019-01-11T21:25:09.920Z,5.40
2019-01-11T21:27:46.496Z,5.93
2019-01-11T21:30:32.450Z,4.17
2019-01-11T21:33:08.134Z,5.10
2019-01-11T21:35:44.437Z,5.33
2019-01-11T21:38:20.895Z,4.93
2019-01-11T21:40:57.422Z,3.93
2019-01-11T21:43:28.095Z,4.20
2019-01-11T21:46:03.247Z,4.40
2019-01-11T21:48:30.591Z,3.93
2019-01-11T21:51:00.912Z,4.83
2019-01-11T21:53:31.220Z,5.10
2019-01-11T21:56:01.525Z,5.13
2019-01-11T21:58:31.860Z,4.43
2019-01-11T22:01:03.281Z,5.67
2019-01-11T22:03:35.954Z,5.57
2019-01-11T22:06:09.065Z,3.17
2019-01-11T22:08:41.947Z,6.58
2019-01-11T22:11:15.847Z,5.40
2019-01-11T22:13:50.834Z,4.10
2019-01-11T22:16:25.336Z,5.27
2019-01-11T22:19:00.655Z,3.93
2019-01-11T22:21:34.621Z,4.90
2019-01-11T22:24:10.846Z,4.57
2019-01-11T22:26:44.326Z,5.43
2019-01-11T22:29:19.170Z,7.33
2019-01-11T22:31:53.772Z,4.40
2019-01-11T22:34:28.957Z,3.83
2019-01-11T22:37:01.980Z,5.07
2019-01-11T22:39:34.247Z,4.00
2019-01-11T22:42:07.942Z,4.90
2019-01-11T22:44:42.824Z,5.40
2019-01-11T22:47:17.959Z,5.70
2019-01-11T22:49:54.328Z,5.03
2019-01-11T22:52:30.056Z,3.80
2019-01-11T22:55:07.919Z,5.20
2019-01-11T22:57:45.896Z,6.20
2019-01-11T23:00:53.781Z,4.97
2019-01-11T23:03:28.490Z,7.37
2019-01-11T23:06:13.767Z,4.87
2019-01-11T23:08:44.117Z,3.67
2019-01-11T23:11:59.466Z,5.20
2019-01-11T23:14:29.887Z,8.67
2019-01-11T23:17:09.961Z,6.07
2019-01-11T23:19:40.436Z,5.10
2019-01-11T23:22:10.837Z,5.77
2019-01-11T23:24:41.466Z,4.90
2019-01-11T23:27:11.880Z,6.00
2019-01-11T23:29:42.258Z,4.07
2019-01-11T23:32:12.577Z,3.90
2019-01-11T23:34:42.902Z,4.37
2019-01-11T23:37:13.270Z,5.03
2019-01-11T23:39:43.582Z,4.53
2019-01-11T23:42:14.046Z,3.27
2019-01-11T23:44:44.437Z,4.90
2019-01-11T23:47:14.875Z,4.10
2019-01-11T23:49:45.225Z,4.60
2019-01-11T23:52:18.014Z,3.57
2019-01-11T23:54:48.292Z,4.57
2019-01-11T23:57:18.553Z,4.30
2019-01-11T23:59:56.795Z,3.77
